createdAt,value
2018-03-03T00:00:11.707Z,14.90
2018-03-03T00:01:11.914Z,15.40
2018-03-03T00:02:12.126Z,15.30
2018-03-03T00:03:12.337Z,15.00
2018-03-03T00:04:12.548Z,15.50
2018-03-03T00:05:12.759Z,14.80
2018-03-03T00:06:12.970Z,15.30
2018-03-03T00:07:13.181Z,15.80
2018-03-03T00:08:13.393Z,14.70
2018-03-03T00:09:13.602Z,15.60
2018-03-03T00:10:13.814Z,15.50
2018-03-03T00:11:14.025Z,15.00
2018-03-03T00:12:14.238Z,15.10
2018-03-03T00:13:14.449Z,14.60
2018-03-03T00:14:14.664Z,15.00
2018-03-03T00:15:14.876Z,15.30
2018-03-03T00:16:15.098Z,15.50
2018-03-03T00:17:15.296Z,14.70
2018-03-03T00:18:15.506Z,15.10
2018-03-03T00:20:47.250Z,14.80
2018-03-03T00:21:47.462Z,15.20
2018-03-03T00:22:47.674Z,14.80
2018-03-03T00:23:47.884Z,15.20
2018-03-03T00:24:48.096Z,15.20
2018-03-03T00:25:48.308Z,14.70
2018-03-03T00:26:48.519Z,15.20
2018-03-03T00:27:55.849Z,14.70
2018-03-03T00:28:56.065Z,14.80
2018-03-03T00:29:56.289Z,15.10
2018-03-03T00:30:56.520Z,15.00
2018-03-03T00:31:55.741Z,15.50
2018-03-03T00:32:49.994Z,16.10
2018-03-03T00:33:57.319Z,15.70
2018-03-03T00:34:50.410Z,15.70
2018-03-03T00:35:50.631Z,15.40
2018-03-03T00:36:50.843Z,14.80
2018-03-03T00:37:51.042Z,14.80
2018-03-03T00:38:51.254Z,15.40
2018-03-03T00:39:51.466Z,15.20
2018-03-03T00:40:51.678Z,16.30
2018-03-03T00:41:51.884Z,15.40
2018-03-03T00:42:52.096Z,14.60
2018-03-03T00:43:52.307Z,15.80
2018-03-03T00:44:52.518Z,15.40
2018-03-03T00:45:52.729Z,15.00
2018-03-03T00:46:52.941Z,15.10
2018-03-03T00:47:53.151Z,15.50
2018-03-03T00:48:53.362Z,15.20
2018-03-03T00:49:53.574Z,15.70
2018-03-03T00:50:53.786Z,15.40
2018-03-03T00:51:53.997Z,15.00
2018-03-03T00:52:54.208Z,16.00
2018-03-03T00:53:54.420Z,16.60
2018-03-03T00:54:54.630Z,15.90
2018-03-03T00:55:54.842Z,15.80
2018-03-03T00:56:55.055Z,15.20
2018-03-03T00:57:55.266Z,14.90
2018-03-03T00:58:55.478Z,15.80
2018-03-03T00:59:55.689Z,15.20
2018-03-03T01:00:55.905Z,15.60
2018-03-03T01:01:56.113Z,15.40
2018-03-03T01:02:56.324Z,15.60
2018-03-03T01:03:56.536Z,15.40
2018-03-03T01:04:56.750Z,15.40
2018-03-03T01:05:56.959Z,15.60
2018-03-03T01:06:57.174Z,15.40
2018-03-03T01:07:57.382Z,15.50
2018-03-03T01:08:57.604Z,15.30
2018-03-03T01:09:57.811Z,15.40
2018-03-03T01:10:58.024Z,15.00
2018-03-03T01:11:58.279Z,15.00
2018-03-03T01:12:58.445Z,15.30
2018-03-03T01:13:58.658Z,15.30
2018-03-03T01:14:58.869Z,15.30
2018-03-03T01:15:59.080Z,16.30
2018-03-03T01:16:59.292Z,16.00
2018-03-03T01:17:59.503Z,15.60
2018-03-03T01:18:59.715Z,15.00
2018-03-03T01:19:59.927Z,15.20
2018-03-03T01:21:00.138Z,14.80
2018-03-03T01:22:00.349Z,15.90
2018-03-03T01:23:00.560Z,15.80
2018-03-03T01:24:00.772Z,14.80
2018-03-03T01:25:00.983Z,15.50
2018-03-03T01:26:01.196Z,15.00
2018-03-03T01:27:01.407Z,15.90
2018-03-03T01:28:01.617Z,15.80
2018-03-03T01:29:01.829Z,15.80
2018-03-03T01:30:02.044Z,15.80
2018-03-03T01:31:02.251Z,15.50
2018-03-03T01:32:02.463Z,14.50
2018-03-03T01:33:02.675Z,15.30
2018-03-03T01:34:02.887Z,16.00
2018-03-03T01:35:03.097Z,15.60
2018-03-03T01:36:03.309Z,15.10
2018-03-03T01:37:03.520Z,15.40
2018-03-03T01:38:03.732Z,15.80
2018-03-03T01:39:03.944Z,16.30
2018-03-03T01:40:04.156Z,16.10
2018-03-03T01:41:04.368Z,15.80
2018-03-03T01:42:04.578Z,16.10
2018-03-03T01:43:04.789Z,15.60
2018-03-03T01:44:04.999Z,15.10
2018-03-03T01:45:05.212Z,16.30
2018-03-03T01:46:05.422Z,16.60
2018-03-03T01:47:05.634Z,15.70
2018-03-03T01:48:05.842Z,15.30
2018-03-03T01:49:06.056Z,15.20
2018-03-03T01:50:06.277Z,15.40
2018-03-03T01:51:06.474Z,15.40
2018-03-03T01:52:06.686Z,15.40
2018-03-03T01:53:06.897Z,15.50
2018-03-03T01:54:07.109Z,15.10
2018-03-03T01:55:07.321Z,15.70
2018-03-03T01:56:07.547Z,15.80
2018-03-03T01:57:07.742Z,15.80
2018-03-03T01:58:07.956Z,15.60
2018-03-03T01:59:08.171Z,15.90
2018-03-03T02:00:08.379Z,15.50
2018-03-03T02:01:08.590Z,16.10
2018-03-03T02:02:08.802Z,16.60
2018-03-03T02:03:09.014Z,15.20
2018-03-03T02:04:09.228Z,15.60
2018-03-03T02:05:09.437Z,15.40
2018-03-03T02:06:09.648Z,16.00
2018-03-03T02:07:09.860Z,15.60
2018-03-03T02:08:10.071Z,15.90
2018-03-03T02:09:10.290Z,16.20
2018-03-03T02:10:10.495Z,16.20
2018-03-03T02:11:10.707Z,15.40
2018-03-03T02:12:10.918Z,15.60
2018-03-03T02:13:11.129Z,16.40
2018-03-03T02:14:11.340Z,15.50
2018-03-03T02:15:11.552Z,15.90
2018-03-03T02:16:11.764Z,15.40
2018-03-03T02:17:11.974Z,15.50
2018-03-03T02:18:12.191Z,15.40
2018-03-03T02:19:12.401Z,15.60
2018-03-03T02:20:12.614Z,15.30
2018-03-03T02:21:12.821Z,15.30
2018-03-03T02:22:13.033Z,15.90
2018-03-03T02:23:13.244Z,15.60
2018-03-03T02:24:13.456Z,16.10
2018-03-03T02:25:13.667Z,15.90
2018-03-03T02:26:13.879Z,15.80
2018-03-03T02:27:14.091Z,15.60
2018-03-03T02:28:14.302Z,15.90
2018-03-03T02:29:14.514Z,15.30
2018-03-03T02:30:14.727Z,15.80
2018-03-03T02:31:14.938Z,16.10
2018-03-03T02:32:15.148Z,15.60
2018-03-03T02:33:15.359Z,15.30
2018-03-03T02:34:15.571Z,16.10
2018-03-03T02:35:15.783Z,16.70
2018-03-03T02:36:15.995Z,14.90
2018-03-03T02:37:16.207Z,15.10
2018-03-03T02:38:16.419Z,15.00
2018-03-03T02:39:16.630Z,15.60
2018-03-03T02:40:16.842Z,15.30
2018-03-03T02:41:17.059Z,15.90
2018-03-03T02:42:17.267Z,15.70
2018-03-03T02:43:17.480Z,15.20
2018-03-03T02:44:17.691Z,16.20
2018-03-03T02:45:17.903Z,16.00
2018-03-03T02:46:18.113Z,15.70
2018-03-03T02:47:18.355Z,15.80
2018-03-03T02:48:18.536Z,16.30
2018-03-03T02:49:18.748Z,15.80
2018-03-03T02:50:18.958Z,15.50
2018-03-03T02:51:19.169Z,15.00
2018-03-03T02:52:19.380Z,15.40
2018-03-03T02:53:19.593Z,16.10
2018-03-03T02:54:19.807Z,16.20
2018-03-03T02:55:20.016Z,16.30
2018-03-03T02:56:20.227Z,15.90
2018-03-03T02:57:20.438Z,16.30
2018-03-03T02:58:20.650Z,15.10
2018-03-03T02:59:20.862Z,15.70
2018-03-03T03:00:21.073Z,15.60
2018-03-03T03:01:21.286Z,16.00
2018-03-03T03:02:21.498Z,15.90
2018-03-03T03:03:21.714Z,16.20
2018-03-03T03:04:21.922Z,14.80
2018-03-03T03:05:22.137Z,15.80
2018-03-03T03:06:22.347Z,16.00
2018-03-03T03:07:22.563Z,15.40
2018-03-03T03:08:22.772Z,16.00
2018-03-03T03:09:22.980Z,15.30
2018-03-03T03:10:23.192Z,16.80
2018-03-03T03:11:23.404Z,15.60
2018-03-03T03:12:23.615Z,15.90
2018-03-03T03:13:30.960Z,16.10
2018-03-03T03:14:31.402Z,15.20
2018-03-03T03:15:31.603Z,15.40
2018-03-03T03:16:31.799Z,15.00
2018-03-03T03:17:31.802Z,15.00
2018-03-03T03:18:32.235Z,16.10
2018-03-03T03:19:32.231Z,15.80
2018-03-03T03:20:32.457Z,16.30
2018-03-03T03:21:25.559Z,15.30
2018-03-03T03:22:25.768Z,15.90
2018-03-03T03:23:25.980Z,15.60
2018-03-03T03:24:26.192Z,15.90
2018-03-03T03:25:26.401Z,16.00
2018-03-03T03:26:26.612Z,15.00
2018-03-03T03:27:26.823Z,16.20
2018-03-03T03:28:27.034Z,15.40
2018-03-03T03:29:27.246Z,15.50
2018-03-03T03:30:27.459Z,15.70
2018-03-03T03:31:27.670Z,15.40
2018-03-03T03:32:27.871Z,15.90
2018-03-03T03:33:28.109Z,16.00
2018-03-03T03:34:28.292Z,15.70
2018-03-03T03:35:28.504Z,15.90
2018-03-03T03:36:28.715Z,16.50
2018-03-03T03:37:28.926Z,15.40
2018-03-03T03:38:29.139Z,15.00
2018-03-03T03:39:29.349Z,15.60
2018-03-03T03:40:29.561Z,15.50
2018-03-03T03:41:29.773Z,16.30
2018-03-03T03:42:29.983Z,16.40
2018-03-03T03:43:30.195Z,15.90
2018-03-03T03:44:30.408Z,16.10
2018-03-03T03:45:30.619Z,16.70
2018-03-03T03:46:30.831Z,15.70
2018-03-03T03:47:31.042Z,15.50
2018-03-03T03:48:31.253Z,15.70
2018-03-03T03:49:31.466Z,15.80
2018-03-03T03:50:31.676Z,15.40
2018-03-03T03:51:31.889Z,15.90
2018-03-03T03:52:32.100Z,15.70
2018-03-03T03:53:32.312Z,15.60
2018-03-03T03:54:32.523Z,15.70
2018-03-03T03:55:32.736Z,15.30
2018-03-03T03:56:32.948Z,15.30
2018-03-03T03:57:33.159Z,15.40
2018-03-03T03:58:33.371Z,16.40
2018-03-03T03:59:33.585Z,15.90
2018-03-03T04:00:33.794Z,15.40
2018-03-03T04:01:34.007Z,15.80
2018-03-03T04:02:34.218Z,15.90
2018-03-03T04:03:34.430Z,15.50
2018-03-03T04:04:34.641Z,15.50
2018-03-03T04:05:34.856Z,15.60
2018-03-03T04:06:35.066Z,15.90
2018-03-03T04:07:35.276Z,15.70
2018-03-03T04:08:35.488Z,16.40
2018-03-03T04:09:35.700Z,16.10
2018-03-03T04:10:35.912Z,15.60
2018-03-03T04:11:36.124Z,15.50
2018-03-03T04:12:36.335Z,16.00
2018-03-03T04:13:36.547Z,15.70
2018-03-03T04:14:36.757Z,15.80
2018-03-03T04:15:36.969Z,15.70
2018-03-03T04:16:37.174Z,15.40
2018-03-03T04:17:37.389Z,16.00
2018-03-03T04:18:37.598Z,15.40
2018-03-03T04:19:37.810Z,15.70
2018-03-03T04:20:38.022Z,16.10
2018-03-03T04:21:38.234Z,15.50
2018-03-03T04:22:38.445Z,15.40
2018-03-03T04:23:38.657Z,15.50
2018-03-03T04:24:38.868Z,16.30
2018-03-03T04:25:39.080Z,15.30
2018-03-03T04:26:39.294Z,16.60
2018-03-03T04:27:39.502Z,15.40
2018-03-03T04:28:39.713Z,16.10
2018-03-03T04:29:39.926Z,15.40
2018-03-03T04:30:40.138Z,16.20
2018-03-03T04:31:40.353Z,15.70
2018-03-03T04:32:40.561Z,16.00
2018-03-03T04:33:40.773Z,15.90
2018-03-03T04:34:40.984Z,16.30
2018-03-03T04:35:41.196Z,15.30
2018-03-03T04:36:41.407Z,16.10
2018-03-03T04:37:41.618Z,15.80
2018-03-03T04:38:41.831Z,15.60
2018-03-03T04:39:42.266Z,15.30
2018-03-03T04:40:42.251Z,16.50
2018-03-03T04:41:42.463Z,15.80
2018-03-03T04:42:42.674Z,15.60
2018-03-03T04:43:42.885Z,15.40
2018-03-03T04:44:43.098Z,16.00
2018-03-03T04:45:43.309Z,16.30
2018-03-03T04:46:43.522Z,16.20
2018-03-03T04:47:43.733Z,16.00
2018-03-03T04:48:43.944Z,16.40
2018-03-03T04:49:44.157Z,16.20
2018-03-03T04:50:44.369Z,16.30
2018-03-03T04:51:44.579Z,15.30
2018-03-03T04:52:44.792Z,15.70
2018-03-03T04:53:45.002Z,15.30
2018-03-03T04:54:45.214Z,15.90
2018-03-03T04:55:45.427Z,15.60
2018-03-03T04:56:45.648Z,15.90
2018-03-03T04:57:45.851Z,15.80
2018-03-03T04:58:46.095Z,16.50
2018-03-03T04:59:46.305Z,15.40
2018-03-03T05:00:46.513Z,15.50
2018-03-03T05:01:46.739Z,16.30
2018-03-03T05:02:46.941Z,15.50
2018-03-03T05:03:47.151Z,16.10
2018-03-03T05:04:47.363Z,16.20
2018-03-03T05:05:47.575Z,15.50
2018-03-03T05:06:47.787Z,16.20
2018-03-03T05:07:47.998Z,15.50
2018-03-03T05:08:48.209Z,15.90
2018-03-03T05:09:48.421Z,15.10
2018-03-03T05:10:48.633Z,15.90
2018-03-03T05:11:48.843Z,16.60
2018-03-03T05:12:49.055Z,15.60
2018-03-03T05:13:49.262Z,15.60
2018-03-03T05:14:49.472Z,16.40
2018-03-03T05:15:49.686Z,16.30
2018-03-03T05:16:49.896Z,15.30
2018-03-03T05:17:50.108Z,16.10
2018-03-03T05:18:50.320Z,15.50
2018-03-03T05:19:50.534Z,16.00
2018-03-03T05:20:50.743Z,15.60
2018-03-03T05:21:50.955Z,16.50
2018-03-03T05:22:51.170Z,16.20
2018-03-03T05:23:51.381Z,16.30
2018-03-03T05:24:51.590Z,16.10
2018-03-03T05:25:51.802Z,16.00
2018-03-03T05:26:52.013Z,15.90
2018-03-03T05:27:52.225Z,16.00
2018-03-03T05:28:52.436Z,15.90
2018-03-03T05:29:52.648Z,16.10
2018-03-03T05:30:52.859Z,16.00
2018-03-03T05:31:53.081Z,15.20
2018-03-03T05:32:53.284Z,15.70
2018-03-03T05:33:53.494Z,15.90
2018-03-03T05:34:53.706Z,15.90
2018-03-03T05:35:53.918Z,15.60
2018-03-03T05:36:54.129Z,15.80
2018-03-03T05:37:54.342Z,15.70
2018-03-03T05:38:54.553Z,16.50
2018-03-03T05:39:54.764Z,15.60
2018-03-03T05:40:54.977Z,16.00
2018-03-03T05:41:55.187Z,14.40
2018-03-03T05:42:55.399Z,15.80
2018-03-03T05:43:55.667Z,16.30
2018-03-03T05:44:55.823Z,16.20
2018-03-03T05:45:56.036Z,16.10
2018-03-03T05:46:56.246Z,15.80
2018-03-03T05:47:56.462Z,16.00
2018-03-03T05:48:56.676Z,16.00
2018-03-03T05:49:56.880Z,16.00
2018-03-03T05:50:57.093Z,16.10
2018-03-03T05:51:57.305Z,15.30
2018-03-03T05:52:57.518Z,16.00
2018-03-03T05:53:57.727Z,16.10
2018-03-03T05:54:57.939Z,16.30
2018-03-03T05:55:58.154Z,15.60
2018-03-03T05:56:58.362Z,15.60
2018-03-03T05:57:58.575Z,16.50
2018-03-03T05:59:05.919Z,16.00
2018-03-03T06:00:05.168Z,16.00
2018-03-03T06:01:06.750Z,15.30
2018-03-03T06:02:06.754Z,15.30
2018-03-03T06:03:05.978Z,15.60
2018-03-03T06:04:07.547Z,16.40
2018-03-03T06:05:07.742Z,15.40
2018-03-03T06:06:07.743Z,16.50
2018-03-03T06:07:00.849Z,16.20
2018-03-03T06:08:01.062Z,15.60
2018-03-03T06:09:01.276Z,16.00
2018-03-03T06:10:01.486Z,16.10
2018-03-03T06:11:01.701Z,15.60
2018-03-03T06:12:01.915Z,16.20
2018-03-03T06:13:02.126Z,16.20
2018-03-03T06:14:02.340Z,15.50
2018-03-03T06:15:02.554Z,16.30
2018-03-03T06:16:03.006Z,15.60
2018-03-03T06:17:02.979Z,16.30
2018-03-03T06:18:03.192Z,16.00
2018-03-03T06:19:03.406Z,15.40
2018-03-03T06:20:03.618Z,15.90
2018-03-03T06:21:03.836Z,16.50
2018-03-03T06:22:04.044Z,16.40
2018-03-03T06:23:04.259Z,15.90
2018-03-03T06:24:04.471Z,16.00
2018-03-03T06:25:04.684Z,16.30
2018-03-03T06:26:04.900Z,16.10
2018-03-03T06:27:05.110Z,15.70
2018-03-03T06:28:05.321Z,16.40
2018-03-03T06:29:05.532Z,16.30
2018-03-03T06:30:05.749Z,16.10
2018-03-03T06:31:05.956Z,16.10
2018-03-03T06:32:06.168Z,15.80
2018-03-03T06:33:06.383Z,15.60
2018-03-03T06:34:06.592Z,15.80
2018-03-03T06:35:06.803Z,16.60
2018-03-03T06:36:07.026Z,16.30
2018-03-03T06:37:07.226Z,16.70
2018-03-03T06:38:07.437Z,15.90
2018-03-03T06:39:07.657Z,15.70
2018-03-03T06:40:07.861Z,16.40
2018-03-03T06:41:08.073Z,15.90
2018-03-03T06:42:08.284Z,15.60
2018-03-03T06:43:08.497Z,15.90
2018-03-03T06:44:08.708Z,15.60
2018-03-03T06:45:08.918Z,16.30
2018-03-03T06:46:09.170Z,15.40
2018-03-03T06:47:09.343Z,16.80
2018-03-03T06:48:09.554Z,16.10
2018-03-03T06:49:09.767Z,16.10
2018-03-03T06:50:09.977Z,15.80
2018-03-03T06:51:10.189Z,16.00
2018-03-03T06:52:10.410Z,15.90
2018-03-03T06:53:10.613Z,15.30
2018-03-03T06:54:10.825Z,16.10
2018-03-03T06:55:11.035Z,15.50
2018-03-03T06:56:11.248Z,15.90
2018-03-03T06:57:11.458Z,16.00
2018-03-03T06:58:11.671Z,15.80
2018-03-03T06:59:11.883Z,16.30
2018-03-03T07:00:12.094Z,15.50
2018-03-03T07:01:12.314Z,16.00
2018-03-03T07:02:12.519Z,16.20
2018-03-03T07:03:12.729Z,16.40
2018-03-03T07:04:12.940Z,15.50
2018-03-03T07:05:13.154Z,15.50
2018-03-03T07:06:13.364Z,16.20
2018-03-03T07:07:13.578Z,15.60
2018-03-03T07:08:13.788Z,15.40
2018-03-03T07:09:13.999Z,16.20
2018-03-03T07:10:14.218Z,15.80
2018-03-03T07:11:14.432Z,16.00
2018-03-03T07:12:14.642Z,16.50
2018-03-03T07:13:14.855Z,16.00
2018-03-03T07:14:15.066Z,16.10
2018-03-03T07:15:15.277Z,16.10
2018-03-03T07:16:15.484Z,15.00
2018-03-03T07:17:15.693Z,15.50
2018-03-03T07:18:15.904Z,15.90
2018-03-03T07:19:16.124Z,15.50
2018-03-03T07:20:16.335Z,15.60
2018-03-03T07:21:16.549Z,16.00
2018-03-03T07:22:16.759Z,16.10
2018-03-03T07:23:16.963Z,15.70
2018-03-03T07:24:17.173Z,15.50
2018-03-03T07:25:17.396Z,16.10
2018-03-03T07:26:17.606Z,15.40
2018-03-03T07:27:17.830Z,15.80
2018-03-03T07:28:18.039Z,16.10
2018-03-03T07:29:18.246Z,15.00
2018-03-03T07:30:18.458Z,15.30
2018-03-03T07:31:18.669Z,16.10
2018-03-03T07:32:18.881Z,16.30
2018-03-03T07:33:19.100Z,16.10
2018-03-03T07:34:19.314Z,15.80
2018-03-03T07:35:19.529Z,15.60
2018-03-03T07:36:19.741Z,16.00
2018-03-03T07:37:19.954Z,16.10
2018-03-03T07:38:20.168Z,15.60
2018-03-03T07:39:20.382Z,16.00
2018-03-03T07:40:20.594Z,16.10
2018-03-03T07:41:20.808Z,15.20
2018-03-03T07:42:21.022Z,15.70
2018-03-03T07:43:21.235Z,16.40
2018-03-03T07:44:21.449Z,15.80
2018-03-03T07:45:21.662Z,16.20
2018-03-03T07:46:21.876Z,16.50
2018-03-03T07:47:22.089Z,15.60
2018-03-03T07:48:22.303Z,15.90
2018-03-03T07:49:22.515Z,16.10
2018-03-03T07:50:22.728Z,15.50
2018-03-03T07:51:22.942Z,15.70
2018-03-03T07:52:23.156Z,15.80
2018-03-03T07:53:23.368Z,15.80
2018-03-03T07:54:23.582Z,16.00
2018-03-03T07:55:23.795Z,15.80
2018-03-03T07:56:24.009Z,16.20
2018-03-03T07:57:24.235Z,15.20
2018-03-03T07:58:24.435Z,16.20
2018-03-03T07:59:24.648Z,16.10
2018-03-03T08:00:24.873Z,15.40
2018-03-03T08:01:25.081Z,15.60
2018-03-03T08:02:25.294Z,16.40
2018-03-03T08:03:25.508Z,15.70
2018-03-03T08:04:25.723Z,15.80
2018-03-03T08:05:25.934Z,15.70
2018-03-03T08:06:26.148Z,15.60
2018-03-03T08:07:26.362Z,16.10
2018-03-03T08:08:26.580Z,15.70
2018-03-03T08:09:26.786Z,16.00
2018-03-03T08:10:27.001Z,16.20
2018-03-03T08:11:27.216Z,15.30
2018-03-03T08:12:27.429Z,15.90
2018-03-03T08:13:27.637Z,15.80
2018-03-03T08:14:27.851Z,15.80
2018-03-03T08:15:28.065Z,15.30
2018-03-03T08:16:28.277Z,15.60
2018-03-03T08:17:28.491Z,15.40
2018-03-03T08:18:28.704Z,15.50
2018-03-03T08:19:28.917Z,15.40
2018-03-03T08:20:29.129Z,15.90
2018-03-03T08:21:29.357Z,15.20
2018-03-03T08:22:29.552Z,14.80
2018-03-03T08:23:29.773Z,15.40
2018-03-03T08:24:29.976Z,15.40
2018-03-03T08:25:30.188Z,15.60
2018-03-03T08:26:30.397Z,16.20
2018-03-03T08:27:30.615Z,16.10
2018-03-03T08:28:30.822Z,15.50
2018-03-03T08:29:31.086Z,15.20
2018-03-03T08:30:31.247Z,15.30
2018-03-03T08:31:31.457Z,16.30
2018-03-03T08:32:31.668Z,15.50
2018-03-03T08:33:31.890Z,15.90
2018-03-03T08:34:32.100Z,16.00
2018-03-03T08:35:32.305Z,16.10
2018-03-03T08:36:32.516Z,15.70
2018-03-03T08:37:32.727Z,15.60
2018-03-03T08:38:32.947Z,15.50
2018-03-03T08:39:33.151Z,15.90
2018-03-03T08:40:33.362Z,16.00
2018-03-03T08:41:33.582Z,15.80
2018-03-03T08:42:33.787Z,14.90
2018-03-03T08:43:34.007Z,15.20
2018-03-03T08:44:34.210Z,15.30
2018-03-03T08:45:41.548Z,15.50
2018-03-03T08:46:41.781Z,15.90
2018-03-03T08:47:42.211Z,14.70
2018-03-03T08:48:42.220Z,15.60
2018-03-03T08:49:42.445Z,15.90
2018-03-03T08:50:42.886Z,15.50
2018-03-03T08:51:43.091Z,15.30
2018-03-03T08:52:43.288Z,15.00
2018-03-03T08:53:36.163Z,14.80
2018-03-03T08:54:36.384Z,15.80
2018-03-03T08:55:36.588Z,15.80
2018-03-03T08:56:36.801Z,15.30
2018-03-03T08:57:37.014Z,15.70
2018-03-03T08:58:37.228Z,16.20
2018-03-03T08:59:37.440Z,16.10
2018-03-03T09:00:37.653Z,15.50
2018-03-03T09:01:37.866Z,15.40
2018-03-03T09:02:38.079Z,15.80
2018-03-03T09:03:38.293Z,16.40
2018-03-03T09:04:38.505Z,15.30
2018-03-03T09:05:38.719Z,15.60
2018-03-03T09:06:38.936Z,15.70
2018-03-03T09:07:39.151Z,15.20
2018-03-03T09:08:39.366Z,15.90
2018-03-03T09:09:39.578Z,15.80
2018-03-03T09:10:39.795Z,14.60
2018-03-03T09:11:40.006Z,15.00
2018-03-03T09:12:40.221Z,15.00
2018-03-03T09:13:40.434Z,15.90
2018-03-03T09:14:40.648Z,14.90
2018-03-03T09:15:40.862Z,14.90
2018-03-03T09:16:41.075Z,15.30
2018-03-03T09:17:41.288Z,15.50
2018-03-03T09:18:41.501Z,15.70
2018-03-03T09:19:41.715Z,15.40
2018-03-03T09:20:41.928Z,15.50
2018-03-03T09:21:42.141Z,15.80
2018-03-03T09:22:42.355Z,15.60
2018-03-03T09:23:42.569Z,15.80
2018-03-03T09:24:42.786Z,16.30
2018-03-03T09:25:42.989Z,14.80
2018-03-03T09:26:43.200Z,15.50
2018-03-03T09:27:43.421Z,15.40
2018-03-03T09:28:43.628Z,14.90
2018-03-03T09:29:43.836Z,15.20
2018-03-03T09:30:44.047Z,15.80
2018-03-03T09:31:44.260Z,15.80
2018-03-03T09:32:44.472Z,16.00
2018-03-03T09:33:44.682Z,14.90
2018-03-03T09:34:44.906Z,14.90
2018-03-03T09:35:45.107Z,15.70
2018-03-03T09:36:45.320Z,14.80
2018-03-03T09:37:45.528Z,15.50
2018-03-03T09:38:45.740Z,15.00
2018-03-03T09:39:45.952Z,15.50
2018-03-03T09:40:46.172Z,15.00
2018-03-03T09:41:46.377Z,15.10
2018-03-03T09:42:46.589Z,15.70
2018-03-03T09:43:46.798Z,15.60
2018-03-03T09:44:47.011Z,15.30
2018-03-03T09:45:47.231Z,15.50
2018-03-03T09:46:47.443Z,14.80
2018-03-03T09:47:47.647Z,14.80
2018-03-03T09:48:47.857Z,15.00
2018-03-03T09:49:48.077Z,14.70
2018-03-03T09:50:48.282Z,15.00
2018-03-03T09:51:48.492Z,15.80
2018-03-03T09:52:48.705Z,15.00
2018-03-03T09:53:48.916Z,15.50
2018-03-03T09:54:49.128Z,15.00
2018-03-03T09:55:49.348Z,14.90
2018-03-03T09:56:49.552Z,15.10
2018-03-03T09:57:49.770Z,14.80
2018-03-03T09:58:49.982Z,15.40
2018-03-03T09:59:50.187Z,15.10
2018-03-03T10:00:50.398Z,15.50
2018-03-03T10:01:52.333Z,14.80
2018-03-03T10:02:50.824Z,15.30
2018-03-03T10:03:51.039Z,15.60
2018-03-03T10:04:51.244Z,14.70
2018-03-03T10:05:51.458Z,15.00
2018-03-03T10:06:51.671Z,16.00
2018-03-03T10:07:51.891Z,14.90
2018-03-03T10:08:52.101Z,14.70
2018-03-03T10:09:52.304Z,15.00
2018-03-03T10:10:52.515Z,14.90
2018-03-03T10:11:52.726Z,14.80
2018-03-03T10:12:52.940Z,15.00
2018-03-03T10:13:53.149Z,15.20
2018-03-03T10:14:53.361Z,15.00
2018-03-03T10:15:53.581Z,14.70
2018-03-03T10:16:53.796Z,15.60
2018-03-03T10:17:53.994Z,15.00
2018-03-03T10:18:54.206Z,15.00
2018-03-03T10:19:54.417Z,15.30
2018-03-03T10:20:54.628Z,14.60
2018-03-03T10:21:54.847Z,14.40
2018-03-03T10:22:55.052Z,14.80
2018-03-03T10:23:55.261Z,14.10
2018-03-03T10:24:55.475Z,14.50
2018-03-03T10:25:55.685Z,14.30
2018-03-03T10:26:55.896Z,14.50
2018-03-03T10:27:56.115Z,14.50
2018-03-03T10:28:56.324Z,14.50
2018-03-03T10:29:56.531Z,14.70
2018-03-03T10:30:56.743Z,14.20
2018-03-03T10:31:56.954Z,13.90
2018-03-03T10:32:57.189Z,14.80
2018-03-03T10:33:57.377Z,14.90
2018-03-03T10:34:57.589Z,15.20
2018-03-03T10:35:57.801Z,14.90
2018-03-03T10:36:58.018Z,14.50
2018-03-03T10:37:58.224Z,15.40
2018-03-03T10:38:58.437Z,13.80
2018-03-03T10:39:58.646Z,15.00
2018-03-03T10:40:58.857Z,14.60
2018-03-03T10:41:59.069Z,15.10
2018-03-03T10:42:59.280Z,13.80
2018-03-03T10:43:59.493Z,15.40
2018-03-03T10:44:59.703Z,14.30
2018-03-03T10:45:59.915Z,15.10
2018-03-03T10:47:00.126Z,14.80
2018-03-03T10:48:00.341Z,15.20
2018-03-03T10:49:00.548Z,14.40
2018-03-03T10:50:00.760Z,15.30
2018-03-03T10:51:00.971Z,14.80
2018-03-03T10:52:01.183Z,14.30
2018-03-03T10:53:01.395Z,14.60
2018-03-03T10:54:01.607Z,14.70
2018-03-03T10:55:01.825Z,14.30
2018-03-03T10:56:02.029Z,14.30
2018-03-03T10:57:02.240Z,14.80
2018-03-03T10:58:02.453Z,14.60
2018-03-03T10:59:02.664Z,15.00
2018-03-03T11:00:02.889Z,14.40
2018-03-03T11:01:03.071Z,15.40
2018-03-03T11:02:03.283Z,13.90
2018-03-03T11:03:03.493Z,14.50
2018-03-03T11:04:03.718Z,14.40
2018-03-03T11:05:03.918Z,14.40
2018-03-03T11:06:04.129Z,15.00
2018-03-03T11:07:04.341Z,15.20
2018-03-03T11:08:04.553Z,14.50
2018-03-03T11:09:04.765Z,14.90
2018-03-03T11:10:04.978Z,14.30
2018-03-03T11:11:05.188Z,14.30
2018-03-03T11:12:05.400Z,14.20
2018-03-03T11:13:05.612Z,13.90
2018-03-03T11:14:05.822Z,13.50
2018-03-03T11:15:06.034Z,14.70
2018-03-03T11:16:06.247Z,14.10
2018-03-03T11:17:06.461Z,14.30
2018-03-03T11:18:06.669Z,14.20
2018-03-03T11:19:06.884Z,14.50
2018-03-03T11:20:07.093Z,13.70
2018-03-03T11:21:07.304Z,14.10
2018-03-03T11:22:07.515Z,15.00
2018-03-03T11:23:07.728Z,14.60
2018-03-03T11:24:07.938Z,14.10
2018-03-03T11:25:08.156Z,14.10
2018-03-03T11:26:08.367Z,14.20
2018-03-03T11:27:08.579Z,14.50
2018-03-03T11:28:08.791Z,14.90
2018-03-03T11:29:09.002Z,13.90
2018-03-03T11:30:09.214Z,13.80
2018-03-03T11:31:09.425Z,14.50
2018-03-03T11:32:16.765Z,14.10
2018-03-03T11:33:16.053Z,15.10
2018-03-03T11:34:17.197Z,14.80
2018-03-03T11:35:10.303Z,14.30
2018-03-03T11:36:16.696Z,14.40
2018-03-03T11:37:17.845Z,14.00
2018-03-03T11:38:18.076Z,14.90
2018-03-03T11:39:11.177Z,13.90
2018-03-03T11:40:11.388Z,14.40
2018-03-03T11:41:11.600Z,14.50
2018-03-03T11:42:11.810Z,14.40
2018-03-03T11:43:12.022Z,13.80
2018-03-03T11:44:12.232Z,14.50
2018-03-03T11:45:12.446Z,14.70
2018-03-03T11:46:12.656Z,13.90
2018-03-03T11:47:12.866Z,14.10
2018-03-03T11:48:13.077Z,13.70
2018-03-03T11:49:13.290Z,13.60
2018-03-03T11:50:13.501Z,14.30
2018-03-03T11:51:13.713Z,14.10
2018-03-03T11:52:13.922Z,14.50
2018-03-03T11:53:14.133Z,13.80
2018-03-03T11:54:14.344Z,14.70
2018-03-03T11:55:14.555Z,13.60
2018-03-03T11:56:14.767Z,14.00
2018-03-03T11:57:14.983Z,13.70
2018-03-03T11:58:15.198Z,13.60
2018-03-03T11:59:15.400Z,13.90
2018-03-03T12:00:15.596Z,14.20
2018-03-03T12:01:15.816Z,14.50
2018-03-03T12:02:16.028Z,13.30
2018-03-03T12:03:16.240Z,14.20
2018-03-03T12:04:16.449Z,13.90
2018-03-03T12:05:16.693Z,13.60
2018-03-03T12:06:16.867Z,14.30
2018-03-03T12:07:17.078Z,14.20
2018-03-03T12:08:17.291Z,14.20
2018-03-03T12:10:49.030Z,14.20
2018-03-03T12:11:49.242Z,14.30
2018-03-03T12:12:49.452Z,13.90
2018-03-03T12:13:49.664Z,13.80
2018-03-03T12:14:49.875Z,14.30
2018-03-03T12:15:50.086Z,14.30
2018-03-03T12:16:50.297Z,14.00
2018-03-03T12:17:50.510Z,14.00
2018-03-03T12:18:50.716Z,14.70
2018-03-03T12:19:50.924Z,14.10
2018-03-03T12:20:51.138Z,14.20
2018-03-03T12:21:51.350Z,13.70
2018-03-03T12:22:51.561Z,13.90
2018-03-03T12:23:51.772Z,13.60
2018-03-03T12:24:51.982Z,13.90
2018-03-03T12:25:52.194Z,13.80
2018-03-03T12:26:52.405Z,14.00
2018-03-03T12:27:52.617Z,13.70
2018-03-03T12:28:52.840Z,14.40
2018-03-03T12:29:53.040Z,14.40
2018-03-03T12:30:53.250Z,14.70
2018-03-03T12:31:53.462Z,13.60
2018-03-03T12:32:53.672Z,14.20
2018-03-03T12:33:53.885Z,14.10
2018-03-03T12:34:54.100Z,14.20
2018-03-03T12:35:54.307Z,13.70
2018-03-03T12:36:54.518Z,13.20
2018-03-03T12:37:54.732Z,14.40
2018-03-03T12:38:54.942Z,14.10
2018-03-03T12:39:55.153Z,14.20
2018-03-03T12:40:55.362Z,13.90
2018-03-03T12:41:55.574Z,13.50
2018-03-03T12:42:55.786Z,13.90
2018-03-03T12:43:56.060Z,14.30
2018-03-03T12:44:56.208Z,14.40
2018-03-03T12:45:56.422Z,13.40
2018-03-03T12:46:56.630Z,13.90
2018-03-03T12:47:56.842Z,13.60
2018-03-03T12:48:57.053Z,14.00
2018-03-03T12:49:57.277Z,14.00
2018-03-03T12:50:57.487Z,14.00
2018-03-03T12:51:57.698Z,13.60
2018-03-03T12:52:57.942Z,13.80
2018-03-03T12:53:58.129Z,14.10
2018-03-03T12:54:58.331Z,14.00
2018-03-03T12:55:58.542Z,14.20
2018-03-03T12:56:58.753Z,13.30
2018-03-03T12:57:58.966Z,13.50